createdAt,value
2019-03-17T00:00:13.203Z,99776.99
2019-03-17T00:02:42.612Z,99772.89
2019-03-17T00:05:12.048Z,99764.64
2019-03-17T00:07:41.469Z,99768.34
2019-03-17T00:10:10.909Z,99753.81
2019-03-17T00:12:40.525Z,99752.68
2019-03-17T00:15:09.970Z,99749.36
2019-03-17T00:17:41.680Z,99740.25
2019-03-17T00:20:10.510Z,99748.77
2019-03-17T00:22:39.925Z,99744.88
2019-03-17T00:25:10.259Z,99741.89
2019-03-17T00:27:39.753Z,99743.19
2019-03-17T00:30:11.580Z,99742.27
2019-03-17T00:32:40.991Z,99742.09
2019-03-17T00:35:10.421Z,99743.98
2019-03-17T00:37:39.829Z,99748.27
2019-03-17T00:40:10.405Z,99746.17
2019-03-17T00:42:39.818Z,99745.12
2019-03-17T00:45:11.567Z,99735.92
2019-03-17T00:47:41.019Z,99738.66
2019-03-17T00:50:11.256Z,99733.11
2019-03-17T00:52:40.677Z,99732.16
2019-03-17T00:55:10.115Z,99727.28
2019-03-17T00:57:39.524Z,99720.86
2019-03-17T01:00:15.384Z,99719.47
2019-03-17T01:02:45.001Z,99718.72
2019-03-17T01:05:14.811Z,99720.02
2019-03-17T01:07:44.324Z,99716.91
2019-03-17T01:10:14.533Z,99711.11
2019-03-17T01:12:45.107Z,99713.00
2019-03-17T01:15:14.811Z,99716.91
2019-03-17T01:17:44.217Z,99712.66
2019-03-17T01:20:13.592Z,99719.05
2019-03-17T01:22:43.002Z,99714.55
2019-03-17T01:25:12.436Z,99713.25
2019-03-17T01:27:41.850Z,99712.07
2019-03-17T01:30:12.216Z,99702.79
2019-03-17T01:32:41.624Z,99702.58
2019-03-17T01:35:11.056Z,99698.09
2019-03-17T01:37:40.465Z,99696.95
2019-03-17T01:40:10.339Z,99697.67
2019-03-17T01:42:39.749Z,99696.36
2019-03-17T01:45:09.930Z,99687.71
2019-03-17T01:47:39.340Z,99679.09
2019-03-17T01:50:09.119Z,99679.77
2019-03-17T01:52:38.526Z,99678.34
2019-03-17T01:55:08.127Z,99673.88
2019-03-17T01:57:37.538Z,99669.64
2019-03-17T02:00:09.818Z,99676.83
2019-03-17T02:02:39.228Z,99667.97
2019-03-17T02:05:20.910Z,99680.19
2019-03-17T02:07:39.780Z,99681.70
2019-03-17T02:10:09.207Z,99683.13
2019-03-17T02:12:38.616Z,99681.48
2019-03-17T02:15:08.206Z,99683.25
2019-03-17T02:17:37.608Z,99690.11
2019-03-17T02:20:10.612Z,99683.88
2019-03-17T02:22:40.035Z,99680.44
2019-03-17T02:25:09.464Z,99687.78
2019-03-17T02:27:38.867Z,99673.80
2019-03-17T02:30:12.125Z,99662.20
2019-03-17T02:32:41.524Z,99661.73
2019-03-17T02:35:10.888Z,99660.06
2019-03-17T02:37:40.293Z,99653.77
2019-03-17T02:40:09.666Z,99657.20
2019-03-17T02:42:39.007Z,99646.62
2019-03-17T02:45:09.834Z,99655.44
2019-03-17T02:47:39.208Z,99648.30
2019-03-17T02:50:09.378Z,99645.73
2019-03-17T02:52:38.794Z,99643.59
2019-03-17T02:55:09.089Z,99643.13
2019-03-17T02:57:38.521Z,99647.88
2019-03-17T03:00:10.072Z,99636.16
2019-03-17T03:02:39.499Z,99648.30
2019-03-17T03:05:09.027Z,99647.22
2019-03-17T03:07:38.441Z,99643.98
2019-03-17T03:10:07.845Z,99646.84
2019-03-17T03:12:37.270Z,99636.89
2019-03-17T03:15:08.312Z,99637.14
2019-03-17T03:17:37.746Z,99642.09
2019-03-17T03:20:08.806Z,99643.98
2019-03-17T03:22:38.229Z,99642.69
2019-03-17T03:25:10.545Z,99631.68
2019-03-17T03:27:39.963Z,99637.84
2019-03-17T03:30:13.375Z,99637.35
2019-03-17T03:32:42.853Z,99643.27
2019-03-17T03:35:12.341Z,99636.17
2019-03-17T03:37:41.800Z,99629.66
2019-03-17T03:40:12.337Z,99627.06
2019-03-17T03:42:41.767Z,99622.01
2019-03-17T03:45:12.217Z,99624.03
2019-03-17T03:47:41.667Z,99623.56
2019-03-17T03:50:11.808Z,99623.87
2019-03-17T03:52:41.247Z,99620.34
2019-03-17T03:55:10.591Z,99622.48
2019-03-17T03:57:40.035Z,99617.95
2019-03-17T04:00:12.531Z,99618.63
2019-03-17T04:02:41.961Z,99608.55
2019-03-17T04:05:11.366Z,99613.59
2019-03-17T04:07:40.792Z,99610.02
2019-03-17T04:10:10.743Z,99607.92
2019-03-17T04:12:40.680Z,99608.39
2019-03-17T04:15:11.017Z,99609.90
2019-03-17T04:17:40.454Z,99604.28
2019-03-17T04:20:11.036Z,99599.28
2019-03-17T04:22:40.509Z,99601.55
2019-03-17T04:25:09.864Z,99599.78
2019-03-17T04:27:39.293Z,99597.89
2019-03-17T04:30:10.246Z,99594.45
2019-03-17T04:32:39.667Z,99594.08
2019-03-17T04:35:09.000Z,99591.59
2019-03-17T04:37:38.443Z,99595.97
2019-03-17T04:40:08.688Z,99588.99
2019-03-17T04:42:38.114Z,99583.58
2019-03-17T04:45:08.058Z,99581.19
2019-03-17T04:47:37.503Z,99585.27
2019-03-17T04:50:08.343Z,99576.62
2019-03-17T04:52:37.777Z,99579.64
2019-03-17T04:55:07.348Z,99572.21
2019-03-17T04:57:36.779Z,99573.85
2019-03-17T05:00:13.753Z,99568.44
2019-03-17T05:02:43.194Z,99567.25
2019-03-17T05:05:12.598Z,99563.61
2019-03-17T05:07:42.032Z,99564.32
2019-03-17T05:10:11.431Z,99563.43
2019-03-17T05:12:40.800Z,99557.17
2019-03-17T05:15:10.839Z,99552.22
2019-03-17T05:17:40.270Z,99547.50
2019-03-17T05:20:10.418Z,99544.53
2019-03-17T05:22:39.858Z,99538.95
2019-03-17T05:25:09.268Z,99533.25
2019-03-17T05:27:38.701Z,99540.69
2019-03-17T05:30:10.305Z,99539.29
2019-03-17T05:32:39.746Z,99533.03
2019-03-17T05:35:09.156Z,99538.30
2019-03-17T05:37:38.587Z,99532.19
2019-03-17T05:40:09.335Z,99528.45
2019-03-17T05:42:40.661Z,99528.78
2019-03-17T05:45:09.875Z,99533.31
2019-03-17T05:47:39.308Z,99522.09
2019-03-17T05:50:09.645Z,99516.20
2019-03-17T05:52:39.390Z,99517.53
2019-03-17T05:55:09.864Z,99518.16
2019-03-17T05:57:39.277Z,99513.94
2019-03-17T06:00:13.963Z,99510.14
2019-03-17T06:02:43.401Z,99504.96
2019-03-17T06:05:12.810Z,99506.41
2019-03-17T06:07:42.237Z,99504.76
2019-03-17T06:10:11.640Z,99511.20
2019-03-17T06:12:41.064Z,99513.39
2019-03-17T06:15:11.641Z,99508.32
2019-03-17T06:17:41.118Z,99505.61
2019-03-17T06:20:11.621Z,99512.41
2019-03-17T06:22:41.020Z,99513.00
2019-03-17T06:25:10.626Z,99511.61
2019-03-17T06:27:40.050Z,99505.70
2019-03-17T06:30:14.361Z,99505.02
2019-03-17T06:32:43.796Z,99497.33
2019-03-17T06:35:13.213Z,99509.54
2019-03-17T06:37:42.656Z,99496.50
2019-03-17T06:40:13.741Z,99495.33
2019-03-17T06:42:43.194Z,99491.42
2019-03-17T06:45:12.604Z,99482.63
2019-03-17T06:47:42.039Z,99483.22
2019-03-17T06:50:15.587Z,99485.83
2019-03-17T06:52:45.032Z,99480.74
2019-03-17T06:55:18.096Z,99487.12
2019-03-17T06:57:47.807Z,99480.03
2019-03-17T07:00:17.211Z,99486.08
2019-03-17T07:02:46.642Z,99489.02
2019-03-17T07:05:16.563Z,99484.64
2019-03-17T07:07:45.976Z,99486.30
2019-03-17T07:10:15.402Z,99488.20
2019-03-17T07:12:44.799Z,99481.77
2019-03-17T07:15:14.229Z,99477.15
2019-03-17T07:17:43.639Z,99473.22
2019-03-17T07:20:13.795Z,99468.34
2019-03-17T07:22:43.205Z,99469.84
2019-03-17T07:25:12.635Z,99464.02
2019-03-17T07:27:42.043Z,99462.21
2019-03-17T07:30:13.323Z,99465.73
2019-03-17T07:32:42.732Z,99466.73
2019-03-17T07:35:12.164Z,99467.86
2019-03-17T07:37:41.580Z,99467.17
2019-03-17T07:40:12.707Z,99464.27
2019-03-17T07:42:42.129Z,99457.80
2019-03-17T07:45:12.129Z,99454.57
2019-03-17T07:47:41.545Z,99451.30
2019-03-17T07:50:12.156Z,99453.04
2019-03-17T07:52:41.561Z,99459.68
2019-03-17T07:55:11.270Z,99460.41
2019-03-17T07:57:40.676Z,99448.28
2019-03-17T08:00:11.653Z,99449.05
2019-03-17T08:02:41.056Z,99444.41
2019-03-17T08:05:10.666Z,99442.76
2019-03-17T08:07:40.075Z,99446.20
2019-03-17T08:10:13.167Z,99438.66
2019-03-17T08:12:42.553Z,99438.13
2019-03-17T08:15:12.943Z,99437.70
2019-03-17T08:17:42.356Z,99431.95
2019-03-17T08:20:12.240Z,99429.39
2019-03-17T08:22:41.663Z,99428.48
2019-03-17T08:25:11.632Z,99423.25
2019-03-17T08:27:41.044Z,99413.20
2019-03-17T08:30:12.518Z,99407.61
2019-03-17T08:32:41.924Z,99414.88
2019-03-17T08:35:11.425Z,99424.89
2019-03-17T08:37:40.839Z,99420.75
2019-03-17T08:40:14.921Z,99421.80
2019-03-17T08:42:44.328Z,99427.51
2019-03-17T08:45:14.200Z,99437.30
2019-03-17T08:47:56.609Z,99423.79
2019-03-17T08:50:15.190Z,99423.52
2019-03-17T08:52:45.439Z,99418.62
2019-03-17T08:55:14.870Z,99412.35
2019-03-17T08:57:44.283Z,99436.97
2019-03-17T09:00:15.438Z,99419.30
2019-03-17T09:02:44.849Z,99416.09
2019-03-17T09:05:14.283Z,99410.89
2019-03-17T09:07:43.689Z,99422.31
2019-03-17T09:10:13.965Z,99416.72
2019-03-17T09:12:43.381Z,99410.57
2019-03-17T09:15:12.815Z,99421.25
2019-03-17T09:17:42.229Z,99405.52
2019-03-17T09:20:14.694Z,99398.66
2019-03-17T09:22:44.076Z,99406.41
2019-03-17T09:25:13.518Z,99404.78
2019-03-17T09:27:44.365Z,99398.59
2019-03-17T09:30:15.159Z,99413.89
2019-03-17T09:32:44.574Z,99391.74
2019-03-17T09:35:14.085Z,99385.49
2019-03-17T09:37:43.525Z,99384.06
2019-03-17T09:40:14.025Z,99384.38
2019-03-17T09:42:43.459Z,99373.02
2019-03-17T09:45:14.909Z,99374.34
2019-03-17T09:47:44.757Z,99364.88
2019-03-17T09:50:16.543Z,99368.63
2019-03-17T09:52:46.429Z,99366.26
2019-03-17T09:55:15.927Z,99368.66
2019-03-17T09:57:45.356Z,99371.58
2019-03-17T10:00:19.425Z,99370.09
2019-03-17T10:02:48.864Z,99361.08
2019-03-17T10:05:18.556Z,99370.14
2019-03-17T10:07:47.996Z,99364.08
2019-03-17T10:10:18.742Z,99365.20
2019-03-17T10:12:48.177Z,99372.63
2019-03-17T10:15:20.440Z,99361.22
2019-03-17T10:17:49.965Z,99363.42
2019-03-17T10:20:20.268Z,99354.03
2019-03-17T10:22:49.700Z,99362.66
2019-03-17T10:25:19.100Z,99351.45
2019-03-17T10:27:48.536Z,99346.51
2019-03-17T10:30:21.406Z,99343.53
2019-03-17T10:32:50.832Z,99350.42
2019-03-17T10:35:20.237Z,99351.78
2019-03-17T10:37:49.681Z,99354.61
2019-03-17T10:40:22.814Z,99348.14
2019-03-17T10:42:52.249Z,99351.35
2019-03-17T10:45:21.657Z,99349.55
2019-03-17T10:47:52.210Z,99351.78
2019-03-17T10:50:22.593Z,99343.06
2019-03-17T10:52:52.028Z,99341.47
2019-03-17T10:55:21.436Z,99346.70
2019-03-17T10:57:50.864Z,99341.91
2019-03-17T11:00:24.502Z,99351.22
2019-03-17T11:02:53.931Z,99329.30
2019-03-17T11:05:23.340Z,99316.25
2019-03-17T11:07:52.764Z,99326.38
2019-03-17T11:10:22.170Z,99314.27
2019-03-17T11:12:51.605Z,99310.61
2019-03-17T11:15:21.857Z,99320.83
2019-03-17T11:17:51.410Z,99315.22
2019-03-17T11:20:20.821Z,99323.08
2019-03-17T11:22:50.254Z,99329.50
2019-03-17T11:25:20.229Z,99310.83
2019-03-17T11:27:49.662Z,99317.89
2019-03-17T11:30:20.120Z,99295.83
2019-03-17T11:32:49.552Z,99304.80
2019-03-17T11:35:18.963Z,99305.96
2019-03-17T11:37:48.521Z,99309.40
2019-03-17T11:40:18.878Z,99303.78
2019-03-17T11:42:50.147Z,99299.45
2019-03-17T11:45:19.811Z,99303.76
2019-03-17T11:47:49.350Z,99291.70
2019-03-17T11:50:20.681Z,99290.14
2019-03-17T11:52:50.118Z,99296.60
2019-03-17T11:55:19.533Z,99320.85
2019-03-17T11:57:49.336Z,99297.99
2019-03-17T12:00:19.781Z,99300.14
2019-03-17T12:02:49.345Z,99293.33
2019-03-17T12:05:18.755Z,99302.02
2019-03-17T12:07:48.192Z,99300.18
2019-03-17T12:10:21.017Z,99286.66
2019-03-17T12:12:50.450Z,99300.69
2019-03-17T12:15:22.060Z,99270.02
2019-03-17T12:17:51.551Z,99279.23
2019-03-17T12:20:20.888Z,99275.19
2019-03-17T12:22:50.321Z,99272.23
2019-03-17T12:25:19.856Z,99285.20
2019-03-17T12:27:49.256Z,99261.61
2019-03-17T12:30:23.465Z,99268.09
2019-03-17T12:32:53.243Z,99275.00
2019-03-17T12:35:22.647Z,99272.19
2019-03-17T12:37:52.084Z,99274.44
2019-03-17T12:40:21.785Z,99272.66
2019-03-17T12:42:51.225Z,99274.42
2019-03-17T12:45:20.635Z,99270.55
2019-03-17T12:47:50.068Z,99271.44
2019-03-17T12:50:26.449Z,99269.53
2019-03-17T12:52:55.956Z,99262.89
2019-03-17T12:55:25.366Z,99256.10
2019-03-17T12:57:54.810Z,99266.33
2019-03-17T13:00:26.516Z,99265.94
2019-03-17T13:02:55.953Z,99262.37
2019-03-17T13:05:25.829Z,99258.96
2019-03-17T13:07:55.342Z,99252.20
2019-03-17T13:10:24.759Z,99255.56
2019-03-17T13:12:54.211Z,99255.85
2019-03-17T13:15:23.624Z,99263.45
2019-03-17T13:17:53.067Z,99251.26
2019-03-17T13:20:22.474Z,99253.16
2019-03-17T13:22:51.908Z,99255.34
2019-03-17T13:25:21.346Z,99256.08
2019-03-17T13:27:50.751Z,99262.50
2019-03-17T13:30:20.193Z,99251.94
2019-03-17T13:32:49.597Z,99256.78
2019-03-17T13:35:19.033Z,99249.53
2019-03-17T13:37:48.440Z,99247.30
2019-03-17T13:40:28.918Z,99246.16
2019-03-17T13:42:50.997Z,99256.52
2019-03-17T13:45:20.425Z,99255.88
2019-03-17T13:47:52.741Z,99266.81
2019-03-17T13:50:21.912Z,99258.80
2019-03-17T13:52:51.350Z,99265.94
2019-03-17T13:55:20.840Z,99265.38
2019-03-17T13:57:56.508Z,99267.66
2019-03-17T14:00:25.944Z,99274.03
2019-03-17T14:02:55.362Z,99276.98
2019-03-17T14:05:24.784Z,99257.91
2019-03-17T14:07:54.191Z,99257.31
2019-03-17T14:10:23.630Z,99254.23
2019-03-17T14:12:53.043Z,99254.72
2019-03-17T14:15:22.477Z,99249.31
2019-03-17T14:17:51.883Z,99253.34
2019-03-17T14:20:22.057Z,99245.84
2019-03-17T14:22:51.469Z,99251.41
2019-03-17T14:25:26.780Z,99260.80
2019-03-17T14:27:56.194Z,99263.56
2019-03-17T14:30:25.631Z,99273.67
2019-03-17T14:32:55.044Z,99281.06
2019-03-17T14:35:24.480Z,99286.75
2019-03-17T14:37:53.888Z,99282.58
2019-03-17T14:40:23.327Z,99280.77
2019-03-17T14:42:55.235Z,99280.28
2019-03-17T14:45:24.075Z,99293.66
2019-03-17T14:47:53.479Z,99285.86
2019-03-17T14:50:23.672Z,99301.45
2019-03-17T14:52:53.092Z,99309.78
2019-03-17T14:55:22.518Z,99307.94
2019-03-17T14:57:51.929Z,99304.41
2019-03-17T15:00:22.405Z,99304.78
2019-03-17T15:02:51.817Z,99304.84
2019-03-17T15:05:21.254Z,99292.52
2019-03-17T15:07:50.685Z,99293.82
2019-03-17T15:10:21.056Z,99283.45
2019-03-17T15:12:50.509Z,99277.95
2019-03-17T15:15:20.690Z,99270.02
2019-03-17T15:17:50.171Z,99280.03
2019-03-17T15:20:23.446Z,99277.87
2019-03-17T15:22:52.858Z,99279.81
2019-03-17T15:25:22.285Z,99281.42
2019-03-17T15:27:51.703Z,99282.77
2019-03-17T15:30:25.374Z,99284.83
2019-03-17T15:32:54.790Z,99282.25
2019-03-17T15:35:24.222Z,99289.94
2019-03-17T15:37:53.629Z,99293.79
2019-03-17T15:40:23.064Z,99293.15
2019-03-17T15:42:52.476Z,99292.34
2019-03-17T15:45:22.754Z,99291.72
2019-03-17T15:47:52.164Z,99287.47
2019-03-17T15:50:22.692Z,99281.55
2019-03-17T15:52:52.104Z,99281.53
2019-03-17T15:55:21.550Z,99271.97
2019-03-17T15:57:50.972Z,99272.97
2019-03-17T16:00:25.894Z,99274.79
2019-03-17T16:02:55.077Z,99277.27
2019-03-17T16:05:24.513Z,99273.29
2019-03-17T16:07:53.931Z,99266.53
2019-03-17T16:10:30.950Z,99263.70
2019-03-17T16:13:00.360Z,99264.36
2019-03-17T16:15:29.806Z,99269.62
2019-03-17T16:17:59.218Z,99282.28
2019-03-17T16:20:28.658Z,99287.56
2019-03-17T16:22:58.108Z,99293.00
2019-03-17T16:25:35.182Z,99300.41
2019-03-17T16:28:04.596Z,99303.19
2019-03-17T16:30:34.102Z,99307.30
2019-03-17T16:33:03.520Z,99313.06
2019-03-17T16:35:32.963Z,99315.02
2019-03-17T16:38:02.384Z,99323.41
2019-03-17T16:40:35.284Z,99329.45
2019-03-17T16:43:05.331Z,99331.78
2019-03-17T16:45:34.771Z,99344.92
2019-03-17T16:48:04.184Z,99347.84
2019-03-17T16:50:33.623Z,99359.34
2019-03-17T16:53:03.042Z,99347.81
2019-03-17T16:55:32.482Z,99340.36
2019-03-17T16:58:01.890Z,99347.74
2019-03-17T17:00:31.354Z,99361.52
2019-03-17T17:03:00.766Z,99368.73
2019-03-17T17:05:30.206Z,99381.70
2019-03-17T17:07:59.660Z,99414.03
2019-03-17T17:10:31.150Z,99404.52
2019-03-17T17:13:00.588Z,99420.00
2019-03-17T17:15:31.446Z,99429.38
2019-03-17T17:18:00.893Z,99432.85
2019-03-17T17:20:35.289Z,99435.63
2019-03-17T17:23:04.739Z,99451.67
2019-03-17T17:25:34.155Z,99485.89
2019-03-17T17:28:03.589Z,99494.20
2019-03-17T17:30:33.007Z,99535.91
2019-03-17T17:33:02.456Z,99549.13
2019-03-17T17:35:31.876Z,99547.77
2019-03-17T17:38:01.313Z,99558.65
2019-03-17T17:40:30.735Z,99548.78
2019-03-17T17:43:01.175Z,99552.73
2019-03-17T17:45:30.593Z,99583.59
2019-03-17T17:48:00.028Z,99585.95
2019-03-17T17:50:33.043Z,99589.86
2019-03-17T17:53:02.527Z,99606.31
2019-03-17T17:55:32.017Z,99600.13
2019-03-17T17:58:01.458Z,99590.69
2019-03-17T18:00:44.565Z,99595.86
2019-03-17T18:03:14.001Z,99603.99
2019-03-17T18:05:43.454Z,99627.33
2019-03-17T18:08:12.872Z,99640.14
2019-03-17T18:10:42.285Z,99644.20
2019-03-17T18:13:11.732Z,99639.70
2019-03-17T18:15:41.166Z,99643.34
2019-03-17T18:18:10.594Z,99645.89
2019-03-17T18:20:40.004Z,99651.67
2019-03-17T18:23:17.963Z,99645.93
2019-03-17T18:25:40.594Z,99640.04
2019-03-17T18:28:10.056Z,99636.13
2019-03-17T18:30:39.451Z,99632.44
2019-03-17T18:33:08.887Z,99661.62
2019-03-17T18:35:38.324Z,99673.82
2019-03-17T18:38:07.771Z,99684.77
2019-03-17T18:40:37.153Z,99684.83
2019-03-17T18:43:06.586Z,99692.02
2019-03-17T18:45:36.003Z,99728.97
2019-03-17T18:48:05.430Z,99742.98
2019-03-17T18:50:34.882Z,99754.55
2019-03-17T18:53:04.355Z,99766.12
2019-03-17T18:55:33.761Z,99780.11
2019-03-17T18:58:03.169Z,99758.59
2019-03-17T19:00:32.569Z,99773.16
2019-03-17T19:03:02.074Z,99785.98
2019-03-17T19:05:31.490Z,99801.44
2019-03-17T19:08:00.911Z,99807.22
2019-03-17T19:10:30.797Z,99806.00
2019-03-17T19:13:00.242Z,99803.16
2019-03-17T19:15:29.657Z,99792.46
2019-03-17T19:17:59.090Z,99792.77
2019-03-17T19:20:28.628Z,99789.59
2019-03-17T19:22:58.093Z,99786.50
2019-03-17T19:25:27.510Z,99781.75
2019-03-17T19:27:56.972Z,99783.44
2019-03-17T19:30:26.389Z,99781.86
2019-03-17T19:32:55.872Z,99784.35
2019-03-17T19:35:25.357Z,99792.34
2019-03-17T19:37:54.813Z,99785.00
2019-03-17T19:40:25.066Z,99787.67
2019-03-17T19:42:59.196Z,99785.38
2019-03-17T19:45:27.154Z,99793.26
2019-03-17T19:47:56.950Z,99804.42
2019-03-17T19:50:26.362Z,99813.25
2019-03-17T19:52:55.881Z,99808.52
2019-03-17T19:55:25.291Z,99818.72
2019-03-17T19:57:54.726Z,99832.10
2019-03-17T20:00:24.132Z,99842.13
2019-03-17T20:02:53.577Z,99844.07
2019-03-17T20:05:22.984Z,99841.58
2019-03-17T20:07:52.431Z,99840.55
2019-03-17T20:10:23.386Z,99847.88
2019-03-17T20:12:52.846Z,99836.11
2019-03-17T20:15:22.268Z,99847.88
2019-03-17T20:17:51.725Z,99845.09
2019-03-17T20:20:21.165Z,99848.16
2019-03-17T20:22:50.606Z,99849.11
2019-03-17T20:25:20.030Z,99845.56
2019-03-17T20:27:49.441Z,99845.97
2019-03-17T20:30:19.417Z,99839.16
2019-03-17T20:32:48.873Z,99833.78
2019-03-17T20:35:18.320Z,99842.06
2019-03-17T20:37:47.728Z,99836.38
2019-03-17T20:40:19.167Z,99841.02
2019-03-17T20:42:48.871Z,99834.05
2019-03-17T20:45:20.350Z,99823.92
2019-03-17T20:47:49.418Z,99828.20
2019-03-17T20:50:19.716Z,99824.84
2019-03-17T20:52:49.132Z,99814.36
2019-03-17T20:55:18.568Z,99810.39
2019-03-17T20:57:48.023Z,99817.62
2019-03-17T21:00:19.354Z,99821.13
2019-03-17T21:02:48.762Z,99822.55
2019-03-17T21:05:18.192Z,99809.44
2019-03-17T21:07:47.683Z,99805.72
2019-03-17T21:10:17.684Z,99808.59
2019-03-17T21:12:47.099Z,99819.27
2019-03-17T21:15:18.626Z,99824.92
2019-03-17T21:17:48.039Z,99828.20
2019-03-17T21:20:22.617Z,99822.43
2019-03-17T21:22:52.118Z,99831.72
2019-03-17T21:25:21.788Z,99830.08
2019-03-17T21:27:51.197Z,99851.41
2019-03-17T21:30:25.875Z,99860.34
2019-03-17T21:32:55.289Z,99863.13
2019-03-17T21:35:24.720Z,99874.06
2019-03-17T21:37:54.144Z,99867.59
2019-03-17T21:40:23.566Z,99877.03
2019-03-17T21:42:52.972Z,99879.94
2019-03-17T21:45:22.405Z,99877.14
2019-03-17T21:47:51.818Z,99881.12
2019-03-17T21:50:21.420Z,99886.13
2019-03-17T21:52:50.836Z,99891.33
2019-03-17T21:55:20.273Z,99894.49
2019-03-17T21:57:49.688Z,99889.11
2019-03-17T22:00:19.760Z,99891.90
2019-03-17T22:02:49.174Z,99897.20
2019-03-17T22:05:18.619Z,99893.01
2019-03-17T22:07:50.925Z,99895.61
2019-03-17T22:10:20.201Z,99904.33
2019-03-17T22:12:49.611Z,99910.47
2019-03-17T22:15:19.117Z,99916.02
2019-03-17T22:17:48.729Z,99920.48
2019-03-17T22:20:18.169Z,99934.21
2019-03-17T22:22:47.575Z,99936.92
2019-03-17T22:25:17.312Z,99939.52
2019-03-17T22:27:46.711Z,99948.50
2019-03-17T22:30:19.395Z,99950.75
2019-03-17T22:32:48.868Z,99956.69
2019-03-17T22:35:18.315Z,99956.02
2019-03-17T22:37:47.715Z,99956.87
2019-03-17T22:40:19.144Z,99962.17
2019-03-17T22:42:49.071Z,99962.63
2019-03-17T22:45:18.492Z,99967.27
2019-03-17T22:47:47.898Z,99973.02
2019-03-17T22:50:17.976Z,99977.20
2019-03-17T22:52:47.381Z,99968.56
2019-03-17T22:55:16.873Z,99954.83
2019-03-17T22:57:46.271Z,99958.62
2019-03-17T23:00:26.321Z,99963.47
2019-03-17T23:02:55.728Z,99953.33
2019-03-17T23:05:25.333Z,99964.45
2019-03-17T23:07:54.741Z,99967.55
2019-03-17T23:10:24.176Z,99968.36
2019-03-17T23:12:53.653Z,99969.30
2019-03-17T23:15:23.087Z,99972.75
2019-03-17T23:17:52.494Z,99979.31
2019-03-17T23:20:21.945Z,99972.08
2019-03-17T23:22:51.365Z,99976.05
2019-03-17T23:25:20.800Z,99985.05
2019-03-17T23:27:50.231Z,99992.31
2019-03-17T23:30:20.775Z,99992.31
2019-03-17T23:32:50.205Z,100009.20
2019-03-17T23:35:19.616Z,100014.02
2019-03-17T23:37:49.053Z,100009.17
2019-03-17T23:40:18.460Z,100014.93
2019-03-17T23:42:47.901Z,100011.03
2019-03-17T23:45:17.511Z,100013.06
2019-03-17T23:47:46.940Z,100014.19
2019-03-17T23:50:16.356Z,100010.19
2019-03-17T23:52:45.785Z,100010.85
2019-03-17T23:55:15.192Z,100006.78
2019-03-17T23:57:44.715Z,100005.76
